Time;durP1;ratioP1;P1;durP2;ratioP2;P2;SDS_P1;SDS_P2;PMS_P1;PMS_P2;Temp;Humidity;BMP_temperature;BMP_pressure;BME280_temperature;BME280_humidity;BME280_pressure;Samples;Min_cycle;Max_cycle;Signal;HPM_P1;HPM_P2
2023/03/12 00:00:47;;;;;;;;;;;;;;;-0.79;77.46;97980.91;7380923;19;19927;-82
2023/03/12 00:03:16;;;;;;;;;;;;;;;-0.81;77.63;97976.75;7373222;19;20755;-83
2023/03/12 00:05:43;;;;;;;;;;;;;;;-0.80;77.79;97975.81;7378071;19;20778;-82
2023/03/12 00:08:10;;;;;;;;;;;;;;;-0.74;77.96;97975.41;7373932;19;19911;-85
2023/03/12 00:10:37;;;;;;;;;;;;;;;-0.73;78.00;97974.50;7369916;19;19922;-82
2023/03/12 00:13:03;;;;;;;;;;;;;;;-0.78;77.87;97974.78;7372799;19;19911;-82
2023/03/12 00:15:30;;;;;;;;;;;;;;;-0.78;77.87;97985.16;7372145;19;19914;-84
2023/03/12 00:17:57;;;;;;;;;;;;;;;-0.75;78.14;97982.38;7380177;19;20806;-85
2023/03/12 00:20:25;;;;;;;;;;;;;;;-0.67;78.30;97982.72;7382440;19;19915;-84
2023/03/12 00:22:51;;;;;;;;;;;;;;;-0.66;78.01;97986.16;7387000;19;20446;-84
2023/03/12 00:25:19;;;;;;;;;;;;;;;-0.66;77.90;97991.34;7379392;19;19922;-83
2023/03/12 00:27:47;;;;;;;;;;;;;;;-0.68;77.88;97981.06;7380950;19;20403;-84
2023/03/12 00:30:13;;;;;;;;;;;;;;;-0.71;77.96;97985.59;7378310;19;19922;-83
2023/03/12 00:32:40;;;;;;;;;;;;;;;-0.73;77.99;97982.28;7382140;19;19918;-84
2023/03/12 00:35:09;;;;;;;;;;;;;;;-0.71;78.12;97980.41;7376076;19;19927;-82
2023/03/12 00:37:36;;;;;;;;;;;;;;;-0.73;78.04;97977.09;7383010;19;19926;-84
2023/03/12 00:40:08;;;;;;;;;;;;;;;-0.77;77.90;97978.19;7379016;19;20611;-85
2023/03/12 00:42:36;;;;;;;;;;;;;;;-0.79;77.96;97980.91;7383842;19;19923;-84
2023/03/12 00:45:03;;;;;;;;;;;;;;;-0.82;78.08;97977.66;7381389;19;20816;-83
2023/03/12 00:47:31;;;;;;;;;;;;;;;-0.79;78.42;97978.31;7380442;19;19922;-83
2023/03/12 00:49:57;;;;;;;;;;;;;;;-0.75;78.35;97969.38;7382301;19;20344;-84
2023/03/12 00:52:24;;;;;;;;;;;;;;;-0.75;78.49;97969.38;7375458;19;19938;-82
2023/03/12 00:54:51;;;;;;;;;;;;;;;-0.71;78.75;97963.09;7385894;19;19962;-83
2023/03/12 00:57:17;;;;;;;;;;;;;;;-0.64;78.76;97966.13;7377578;19;19934;-84
2023/03/12 00:59:45;;;;;;;;;;;;;;;-0.63;78.37;97965.22;7380230;19;19975;-84
2023/03/12 01:02:11;;;;;;;;;;;;;;;-0.64;78.44;97957.50;7378338;19;19930;-83
2023/03/12 01:04:38;;;;;;;;;;;;;;;-0.73;78.12;97961.50;7382617;19;19942;-84
2023/03/12 01:07:05;;;;;;;;;;;;;;;-0.74;78.12;97963.28;7375941;19;20347;-84
2023/03/12 01:09:31;;;;;;;;;;;;;;;-0.74;77.99;97965.03;7380052;19;19918;-84
2023/03/12 01:11:58;;;;;;;;;;;;;;;-0.71;78.47;97972.63;7383268;19;19930;-83
2023/03/12 01:14:25;;;;;;;;;;;;;;;-0.68;78.47;97965.50;7380808;19;19974;-84
2023/03/12 01:16:52;;;;;;;;;;;;;;;-0.68;78.57;97967.25;7384859;19;19938;-82
2023/03/12 01:19:19;;;;;;;;;;;;;;;-0.63;78.58;97965.22;7378166;19;19922;-83
2023/03/12 01:21:45;;;;;;;;;;;;;;;-0.60;78.33;97966.78;7380909;19;20016;-82
2023/03/12 01:24:12;;;;;;;;;;;;;;;-0.56;78.08;97961.28;7376042;19;19925;-82
2023/03/12 01:26:38;;;;;;;;;;;;;;;-0.54;78.11;97962.03;7372556;19;20052;-83
2023/03/12 01:29:05;;;;;;;;;;;;;;;-0.68;77.94;97965.50;7374925;19;19927;-84
2023/03/12 01:31:32;;;;;;;;;;;;;;;-0.66;77.58;97970.56;7377143;19;19928;-83
2023/03/12 01:33:58;;;;;;;;;;;;;;;-0.59;77.92;97956.28;7381146;19;19935;-83
2023/03/12 01:36:27;;;;;;;;;;;;;;;-0.55;77.83;97962.13;7374867;19;19919;-83
2023/03/12 01:38:55;;;;;;;;;;;;;;;-0.56;78.08;97969.06;7379345;19;19918;-83
2023/03/12 01:41:22;;;;;;;;;;;;;;;-0.51;78.60;97968.78;7372662;19;19915;-83
2023/03/12 01:43:49;;;;;;;;;;;;;;;-0.54;78.12;97971.59;7380912;19;19911;-83
2023/03/12 01:46:25;;;;;;;;;;;;;;;-0.52;77.95;97965.38;7375242;19;19931;-82
2023/03/12 01:48:57;;;;;;;;;;;;;;;-0.47;78.12;97967.69;7380821;19;19983;-82
2023/03/12 01:51:26;;;;;;;;;;;;;;;-0.41;78.54;97967.28;7376047;19;19921;-82
2023/03/12 01:53:54;;;;;;;;;;;;;;;-0.42;78.19;97965.63;7379869;19;19925;-81
2023/03/12 01:56:21;;;;;;;;;;;;;;;-0.38;78.05;97971.44;7374319;19;19930;-81
2023/03/12 01:58:49;;;;;;;;;;;;;;;-0.38;78.23;97966.25;7378333;19;19932;-81
2023/03/12 02:01:16;;;;;;;;;;;;;;;-0.34;78.02;97973.78;7377316;19;19930;-81
2023/03/12 02:03:44;;;;;;;;;;;;;;;-0.38;77.72;97968.84;7381640;19;19934;-81
2023/03/12 02:06:12;;;;;;;;;;;;;;;-0.30;78.24;97969.19;7378229;19;19915;-82
2023/03/12 02:08:40;;;;;;;;;;;;;;;-0.29;77.99;97973.44;7379697;19;19934;-82
2023/03/12 02:11:07;;;;;;;;;;;;;;;-0.24;77.89;97972.25;7377262;19;19943;-81
2023/03/12 02:13:35;;;;;;;;;;;;;;;-0.26;77.52;97973.28;7375091;19;19918;-81
2023/03/12 02:16:02;;;;;;;;;;;;;;;-0.26;77.67;97965.47;7375864;19;19929;-81
2023/03/12 02:18:29;;;;;;;;;;;;;;;-0.30;77.57;97962.22;7373843;19;19915;-81
2023/03/12 02:21:00;;;;;;;;;;;;;;;-0.25;77.60;97967.13;7381242;19;19951;-80
2023/03/12 02:23:29;;;;;;;;;;;;;;;-0.22;77.52;97959.13;7377241;19;19923;-81
2023/03/12 02:25:56;;;;;;;;;;;;;;;-0.22;77.39;97961.75;7379620;19;20329;-80
2023/03/12 02:28:24;;;;;;;;;;;;;;;-0.19;77.38;97956.34;7371295;19;20390;-80
2023/03/12 02:30:51;;;;;;;;;;;;;;;-0.19;77.29;97961.53;7375670;19;19926;-81
2023/03/12 02:33:18;;;;;;;;;;;;;;;-0.17;77.46;97964.06;7370185;19;19953;-81
2023/03/12 02:35:45;;;;;;;;;;;;;;;-0.16;77.57;97961.34;7378930;19;19915;-80
2023/03/12 02:38:31;;;;;;;;;;;;;;;-0.15;77.53;97968.22;7372141;19;20190;-81
2023/03/12 02:40:59;;;;;;;;;;;;;;;-0.08;77.42;97966.03;7377692;19;19982;-82
2023/03/12 02:43:26;;;;;;;;;;;;;;;-0.10;77.42;97963.56;7376013;19;19975;-82
2023/03/12 02:45:53;;;;;;;;;;;;;;;-0.13;77.40;97961.16;7376090;19;20302;-81
2023/03/12 02:48:21;;;;;;;;;;;;;;;0.02;77.01;97958.47;7374839;19;19978;-83
2023/03/12 02:50:48;;;;;;;;;;;;;;;0.02;76.44;97953.28;7382090;19;19950;-82
2023/03/12 02:53:14;;;;;;;;;;;;;;;0.02;76.55;97948.91;7374095;19;19952;-81
2023/03/12 02:55:41;;;;;;;;;;;;;;;0.07;76.76;97956.41;7378289;19;19910;-82
2023/03/12 02:58:08;;;;;;;;;;;;;;;0.09;76.58;97959.75;7377804;19;20001;-81
2023/03/12 03:00:35;;;;;;;;;;;;;;;-0.02;76.34;97953.50;7376540;19;19978;-82
2023/03/12 03:03:02;;;;;;;;;;;;;;;-0.05;76.54;97943.28;7376007;19;19937;-81
2023/03/12 03:05:28;;;;;;;;;;;;;;;-0.05;76.45;97947.66;7375773;19;19911;-81
2023/03/12 03:07:55;;;;;;;;;;;;;;;-0.08;76.32;97951.31;7377405;19;19943;-82
2023/03/12 03:10:21;;;;;;;;;;;;;;;-0.11;76.52;97954.06;7374360;19;19927;-81
2023/03/12 03:12:48;;;;;;;;;;;;;;;-0.18;75.73;97952.00;7378905;19;19923;-82
2023/03/12 03:15:16;;;;;;;;;;;;;;;-0.18;76.07;97950.22;7373585;19;19914;-81
2023/03/12 03:17:42;;;;;;;;;;;;;;;-0.33;76.33;97946.00;7376770;19;19943;-80
2023/03/12 03:20:10;;;;;;;;;;;;;;;-0.33;77.23;97938.22;7380426;19;19919;-81
2023/03/12 03:22:37;;;;;;;;;;;;;;;-0.32;77.36;97938.09;7378179;19;20328;-82
2023/03/12 03:25:05;;;;;;;;;;;;;;;-0.31;77.43;97938.94;7381567;19;19919;-82
2023/03/12 03:27:31;;;;;;;;;;;;;;;-0.27;77.63;97925.63;7371357;19;19923;-82
2023/03/12 03:29:58;;;;;;;;;;;;;;;-0.31;77.32;97925.94;7377319;19;19930;-81
2023/03/12 03:32:25;;;;;;;;;;;;;;;-0.27;77.98;97923.03;7373772;19;20670;-79
2023/03/12 03:34:52;;;;;;;;;;;;;;;-0.29;77.42;97927.53;7378216;19;19918;-80
2023/03/12 03:37:18;;;;;;;;;;;;;;;-0.33;77.81;97927.81;7375196;19;20019;-81
2023/03/12 03:39:45;;;;;;;;;;;;;;;-0.27;78.00;97933.44;7380504;19;19922;-80
2023/03/12 03:42:12;;;;;;;;;;;;;;;-0.20;77.60;97931.28;7378394;19;19923;-82
2023/03/12 03:44:41;;;;;;;;;;;;;;;-0.17;77.31;97928.47;7378992;19;19923;-81
2023/03/12 03:47:08;;;;;;;;;;;;;;;-0.20;77.08;97926.09;7377165;19;19918;-81
2023/03/12 03:49:34;;;;;;;;;;;;;;;-0.11;77.60;97933.28;7376199;19;19919;-81
2023/03/12 03:52:01;;;;;;;;;;;;;;;-0.04;77.54;97933.72;7376348;19;19933;-81
2023/03/12 03:54:32;;;;;;;;;;;;;;;0.03;77.63;97932.38;7371756;19;20017;-81
2023/03/12 03:57:00;;;;;;;;;;;;;;;0.07;77.08;97930.41;7374661;19;19921;-81
2023/03/12 03:59:29;;;;;;;;;;;;;;;0.11;77.00;97929.28;7375316;19;19922;-82
2023/03/12 04:01:56;;;;;;;;;;;;;;;0.12;77.04;97934.38;7378057;19;19918;-81
2023/03/12 04:04:24;;;;;;;;;;;;;;;-0.17;75.76;97933.69;7369247;19;19919;-82
2023/03/12 04:06:50;;;;;;;;;;;;;;;-0.09;76.45;97930.59;7376011;19;19921;-82
2023/03/12 04:09:17;;;;;;;;;;;;;;;-0.10;76.51;97921.97;7372682;19;19922;-81
2023/03/12 04:11:44;;;;;;;;;;;;;;;-0.07;77.10;97920.91;7375224;19;20343;-81
2023/03/12 04:14:12;;;;;;;;;;;;;;;0.01;77.75;97910.03;7377978;19;19915;-81
2023/03/12 04:16:42;;;;;;;;;;;;;;;0.08;77.56;97913.84;7375556;19;19922;-81
2023/03/12 04:19:08;;;;;;;;;;;;;;;0.18;77.45;97917.53;7378317;19;20571;-81
2023/03/12 04:21:38;;;;;;;;;;;;;;;0.20;76.19;97920.88;7371046;19;19946;-81
2023/03/12 04:24:05;;;;;;;;;;;;;;;0.26;76.26;97915.25;7374762;19;19915;-81
2023/03/12 04:26:33;;;;;;;;;;;;;;;0.30;76.34;97910.69;7374861;19;21803;-82
2023/03/12 04:29:01;;;;;;;;;;;;;;;0.33;76.07;97924.31;7380246;19;19918;-82
2023/03/12 04:31:28;;;;;;;;;;;;;;;0.39;75.92;97915.25;7376312;19;19950;-81
2023/03/12 04:33:55;;;;;;;;;;;;;;;0.44;75.94;97928.78;7383245;19;20352;-83
2023/03/12 04:36:23;;;;;;;;;;;;;;;0.49;76.27;97921.50;7377908;19;19927;-83
2023/03/12 04:38:51;;;;;;;;;;;;;;;0.52;75.67;97930.88;7381459;19;19980;-83
2023/03/12 04:41:22;;;;;;;;;;;;;;;0.50;75.65;97928.41;7373098;19;19918;-83
2023/03/12 04:44:01;;;;;;;;;;;;;;;0.49;75.41;97929.31;7376820;19;19925;-84
2023/03/12 04:46:28;;;;;;;;;;;;;;;0.39;74.85;97936.06;7375485;19;19926;-82
2023/03/12 04:48:54;;;;;;;;;;;;;;;0.46;75.64;97926.09;7381132;19;19925;-83
2023/03/12 04:51:21;;;;;;;;;;;;;;;0.55;76.10;97920.25;7377740;19;19919;-83
2023/03/12 04:53:47;;;;;;;;;;;;;;;0.58;75.92;97917.44;7378913;19;20262;-83
2023/03/12 04:56:14;;;;;;;;;;;;;;;0.59;75.69;97921.72;7378174;19;20376;-84
2023/03/12 04:58:42;;;;;;;;;;;;;;;0.64;75.71;97922.25;7370908;19;19937;-81
2023/03/12 05:01:18;;;;;;;;;;;;;;;0.68;75.53;97926.28;7373989;19;19962;-83
2023/03/12 05:03:45;;;;;;;;;;;;;;;0.67;75.83;97927.25;7378475;19;19926;-83
2023/03/12 05:06:12;;;;;;;;;;;;;;;0.69;75.50;97920.16;7386200;19;19925;-82
2023/03/12 05:08:38;;;;;;;;;;;;;;;0.75;75.62;97917.13;7375165;19;19944;-82
2023/03/12 05:11:06;;;;;;;;;;;;;;;0.77;75.16;97917.03;7384020;19;19911;-82
2023/03/12 05:13:32;;;;;;;;;;;;;;;0.78;75.14;97914.31;7381632;19;19937;-82
2023/03/12 05:15:59;;;;;;;;;;;;;;;0.81;75.00;97916.69;7383094;19;19931;-82
2023/03/12 05:18:26;;;;;;;;;;;;;;;0.75;74.24;97916.31;7375370;19;20026;-82
2023/03/12 05:20:57;;;;;;;;;;;;;;;0.81;74.63;97910.66;7382581;19;19925;-82
2023/03/12 05:23:24;;;;;;;;;;;;;;;0.82;74.56;97910.56;7377699;19;19933;-82
2023/03/12 05:25:51;;;;;;;;;;;;;;;0.84;74.47;97915.66;7382522;19;19918;-83
2023/03/12 05:28:19;;;;;;;;;;;;;;;0.85;74.19;97923.38;7379171;19;20330;-83
2023/03/12 05:30:45;;;;;;;;;;;;;;;0.86;74.72;97909.41;7388743;19;20378;-82
2023/03/12 05:33:12;;;;;;;;;;;;;;;0.90;74.81;97909.22;7382814;19;19919;-82
2023/03/12 05:35:39;;;;;;;;;;;;;;;0.92;74.20;97909.91;7375227;19;20706;-83
2023/03/12 05:38:05;;;;;;;;;;;;;;;0.96;74.32;97913.97;7382528;19;19947;-82
2023/03/12 05:40:32;;;;;;;;;;;;;;;0.96;74.22;97917.41;7377680;19;20014;-82
2023/03/12 05:42:59;;;;;;;;;;;;;;;1.02;74.51;97921.34;7382144;19;20604;-83
2023/03/12 05:45:25;;;;;;;;;;;;;;;1.05;74.50;97924.59;7377412;19;19919;-83
2023/03/12 05:47:55;;;;;;;;;;;;;;;1.06;74.55;97922.81;7380935;19;20737;-84
2023/03/12 05:50:21;;;;;;;;;;;;;;;1.05;74.15;97923.75;7380772;19;20352;-81
2023/03/12 05:52:48;;;;;;;;;;;;;;;1.07;74.72;97916.66;7381950;19;20355;-82
2023/03/12 05:55:14;;;;;;;;;;;;;;;1.05;74.36;97921.13;7384469;19;20272;-82
2023/03/12 05:57:41;;;;;;;;;;;;;;;1.05;74.48;97924.59;7375702;19;19919;-83
2023/03/12 06:00:09;;;;;;;;;;;;;;;1.06;74.39;97930.63;7383050;19;19936;-84
2023/03/12 06:02:49;;;;;;;;;;;;;;;1.08;74.55;97933.97;7382841;19;20535;-85
2023/03/12 06:05:15;;;;;;;;;;;;;;;1.09;74.46;97935.63;7387559;19;20261;-84
2023/03/12 06:07:42;;;;;;;;;;;;;;;1.06;74.05;97939.28;7372084;19;20297;-84
2023/03/12 06:10:09;;;;;;;;;;;;;;;1.05;74.26;97928.94;7379954;19;19921;-84
2023/03/12 06:12:36;;;;;;;;;;;;;;;1.08;74.65;97926.16;7377624;19;20347;-84
2023/03/12 06:15:03;;;;;;;;;;;;;;;1.13;75.10;97920.59;7379646;19;19952;-84
2023/03/12 06:17:31;;;;;;;;;;;;;;;1.14;75.17;97925.72;7375997;19;20444;-84
2023/03/12 06:19:57;;;;;;;;;;;;;;;1.09;74.86;97920.00;7383616;19;19919;-83
2023/03/12 06:22:24;;;;;;;;;;;;;;;1.04;74.60;97911.69;7381667;19;20264;-83
2023/03/12 06:24:51;;;;;;;;;;;;;;;0.98;74.67;97922.53;7384262;19;20220;-84
2023/03/12 06:27:18;;;;;;;;;;;;;;;0.94;74.65;97913.25;7381963;19;19926;-84
2023/03/12 06:29:46;;;;;;;;;;;;;;;1.00;75.02;97918.03;7381002;19;19918;-84
2023/03/12 06:32:13;;;;;;;;;;;;;;;1.04;75.13;97924.69;7386028;19;20785;-84
2023/03/12 06:34:39;;;;;;;;;;;;;;;1.04;75.01;97919.50;7380293;19;19951;-85
2023/03/12 06:37:06;;;;;;;;;;;;;;;1.08;75.16;97920.94;7387764;19;19922;-84
2023/03/12 06:39:33;;;;;;;;;;;;;;;1.00;75.21;97924.09;7382755;19;19914;-84
2023/03/12 06:41:59;;;;;;;;;;;;;;;1.02;75.51;97922.19;7387578;19;19922;-84
2023/03/12 06:44:26;;;;;;;;;;;;;;;1.10;76.09;97916.44;7383794;19;19918;-83
2023/03/12 06:46:53;;;;;;;;;;;;;;;1.11;75.61;97907.72;7384545;19;19915;-84
2023/03/12 06:49:19;;;;;;;;;;;;;;;1.16;75.83;97904.75;7386813;19;19966;-85
2023/03/12 06:51:46;;;;;;;;;;;;;;;1.14;76.10;97904.06;7379275;19;19935;-83
2023/03/12 06:54:13;;;;;;;;;;;;;;;1.12;76.72;97903.31;7382927;19;19923;-84
2023/03/12 06:56:39;;;;;;;;;;;;;;;1.13;76.96;97899.75;7377088;19;19919;-83
2023/03/12 06:59:06;;;;;;;;;;;;;;;1.19;77.12;97899.34;7385971;19;20300;-83
2023/03/12 07:01:32;;;;;;;;;;;;;;;1.22;77.08;97899.94;7382172;19;19923;-85
2023/03/12 07:03:59;;;;;;;;;;;;;;;1.24;77.54;97895.47;7382470;19;19941;-82
2023/03/12 07:06:26;;;;;;;;;;;;;;;1.30;77.69;97899.41;7376831;19;19946;-84
2023/03/12 07:08:52;;;;;;;;;;;;;;;1.35;77.73;97901.69;7386116;19;19919;-84
2023/03/12 07:11:19;;;;;;;;;;;;;;;1.28;77.45;97902.13;7380483;19;19959;-84
2023/03/12 07:13:45;;;;;;;;;;;;;;;1.26;77.68;97908.38;7376080;19;19923;-83
2023/03/12 07:16:12;;;;;;;;;;;;;;;1.26;77.95;97910.97;7385629;19;19955;-85
2023/03/12 07:18:39;;;;;;;;;;;;;;;1.18;79.24;97906.31;7377748;19;19922;-84
2023/03/12 07:21:06;;;;;;;;;;;;;;;1.15;80.19;97909.13;7387424;19;19918;-84
2023/03/12 07:23:32;;;;;;;;;;;;;;;1.14;81.27;97904.88;7379176;19;19990;-84
2023/03/12 07:25:59;;;;;;;;;;;;;;;1.16;82.20;97910.81;7382594;19;19929;-84
2023/03/12 07:28:25;;;;;;;;;;;;;;;1.23;82.28;97917.25;7378607;19;19911;-85
2023/03/12 07:30:52;;;;;;;;;;;;;;;1.28;82.52;97917.75;7387204;19;20337;-84
2023/03/12 07:33:19;;;;;;;;;;;;;;;1.35;82.89;97920.78;7386173;19;20595;-85
2023/03/12 07:35:47;;;;;;;;;;;;;;;1.39;83.01;97919.59;7384889;19;19917;-84
2023/03/12 07:38:16;;;;;;;;;;;;;;;1.45;83.55;97923.53;7387145;19;20433;-86
2023/03/12 07:40:43;;;;;;;;;;;;;;;1.51;84.01;97916.13;7381879;19;21372;-83
2023/03/12 07:43:11;;;;;;;;;;;;;;;1.59;84.56;97920.78;7383076;19;19919;-84
2023/03/12 07:45:39;;;;;;;;;;;;;;;1.74;84.69;97924.91;7381043;19;19931;-84
2023/03/12 07:48:06;;;;;;;;;;;;;;;1.85;84.92;97924.09;7380558;19;19943;-83
2023/03/12 07:50:33;;;;;;;;;;;;;;;1.97;85.04;97923.22;7380299;19;19919;-85
2023/03/12 07:53:00;;;;;;;;;;;;;;;2.03;85.29;97927.16;7384909;19;19923;-84
2023/03/12 07:55:27;;;;;;;;;;;;;;;2.13;85.13;97912.47;7387246;19;20337;-84
2023/03/12 07:57:57;;;;;;;;;;;;;;;2.22;85.09;97920.56;7391654;19;19919;-84
2023/03/12 08:00:24;;;;;;;;;;;;;;;2.26;85.18;97916.75;7392784;19;19925;-83
2023/03/12 08:02:51;;;;;;;;;;;;;;;2.27;85.25;97914.06;7390037;19;19955;-84
2023/03/12 08:05:18;;;;;;;;;;;;;;;2.34;85.10;97909.19;7390475;19;19923;-83
2023/03/12 08:07:45;;;;;;;;;;;;;;;2.38;85.45;97915.84;7383019;19;19926;-84
2023/03/12 08:10:12;;;;;;;;;;;;;;;2.47;85.36;97922.97;7396383;19;20443;-84
2023/03/12 08:12:38;;;;;;;;;;;;;;;2.54;85.57;97926.78;7388458;19;19918;-83
2023/03/12 08:15:07;;;;;;;;;;;;;;;2.62;85.50;97929.66;7391889;19;19923;-83
2023/03/12 08:17:34;;;;;;;;;;;;;;;2.70;85.33;97928.25;7387885;19;19918;-83
2023/03/12 08:20:00;;;;;;;;;;;;;;;2.73;84.75;97926.22;7391233;19;19919;-83
2023/03/12 08:22:27;;;;;;;;;;;;;;;2.76;84.73;97919.94;7386306;19;19930;-84
2023/03/12 08:24:53;;;;;;;;;;;;;;;2.79;84.80;97915.31;7392830;19;19915;-84
2023/03/12 08:27:20;;;;;;;;;;;;;;;2.76;84.96;97914.69;7388023;19;20169;-84
2023/03/12 08:29:47;;;;;;;;;;;;;;;2.81;85.17;97913.41;7383154;19;20873;-83
2023/03/12 08:32:13;;;;;;;;;;;;;;;2.81;85.42;97923.84;7390870;19;20083;-84
2023/03/12 08:34:40;;;;;;;;;;;;;;;2.88;84.99;97926.81;7390033;19;19915;-84
2023/03/12 08:37:06;;;;;;;;;;;;;;;2.92;85.54;97928.25;7393417;19;19967;-83
2023/03/12 08:39:33;;;;;;;;;;;;;;;2.97;85.13;97933.13;7396720;19;19931;-82
2023/03/12 08:42:00;;;;;;;;;;;;;;;2.89;84.67;97935.50;7392131;19;20018;-83
2023/03/12 08:44:26;;;;;;;;;;;;;;;2.89;85.01;97933.72;7384638;19;19925;-82
2023/03/12 08:46:53;;;;;;;;;;;;;;;2.93;85.19;97931.72;7392550;19;19918;-82
2023/03/12 08:49:20;;;;;;;;;;;;;;;2.93;85.32;97935.16;7381865;19;19947;-83
2023/03/12 08:51:46;;;;;;;;;;;;;;;2.96;85.94;97934.06;7384471;19;19922;-82
2023/03/12 08:54:13;;;;;;;;;;;;;;;3.07;86.27;97937.50;7384181;19;19943;-81
2023/03/12 08:56:42;;;;;;;;;;;;;;;3.13;86.46;97938.81;7382913;19;19923;-82
2023/03/12 08:59:11;;;;;;;;;;;;;;;3.22;86.11;97937.28;7386797;19;19931;-81
2023/03/12 09:01:38;;;;;;;;;;;;;;;3.33;86.21;97928.59;7379912;19;20487;-81
2023/03/12 09:04:08;;;;;;;;;;;;;;;3.38;86.17;97929.06;7385075;19;19979;-81
2023/03/12 09:06:35;;;;;;;;;;;;;;;3.51;86.18;97924.50;7383588;19;19918;-82
2023/03/12 09:09:04;;;;;;;;;;;;;;;3.61;86.19;97922.81;7384155;19;19951;-82
2023/03/12 09:11:32;;;;;;;;;;;;;;;3.68;86.83;97917.91;7376304;19;19918;-81
2023/03/12 09:13:59;;;;;;;;;;;;;;;3.85;87.03;97920.00;7383772;19;19927;-82
2023/03/12 09:16:48;;;;;;;;;;;;;;;3.93;86.70;97914.97;7378262;19;19966;-83
2023/03/12 09:19:15;;;;;;;;;;;;;;;3.91;86.07;97914.28;7383213;19;19918;-82
2023/03/12 09:21:42;;;;;;;;;;;;;;;3.97;86.99;97913.75;7379639;19;19932;-82
2023/03/12 09:24:09;;;;;;;;;;;;;;;4.11;87.23;97925.75;7384760;19;19918;-80
2023/03/12 09:26:35;;;;;;;;;;;;;;;4.29;87.76;97925.16;7374718;19;20547;-81
2023/03/12 09:29:02;;;;;;;;;;;;;;;4.35;87.50;97927.28;7385268;19;20512;-80
2023/03/12 09:31:29;;;;;;;;;;;;;;;4.35;85.94;97933.34;7380536;19;19914;-81
2023/03/12 09:33:55;;;;;;;;;;;;;;;4.32;85.80;97932.78;7383534;19;19997;-81
2023/03/12 09:36:22;;;;;;;;;;;;;;;4.24;85.54;97929.94;7378159;19;19919;-81
2023/03/12 09:38:49;;;;;;;;;;;;;;;4.16;85.20;97926.19;7388190;19;19914;-80
2023/03/12 09:41:25;;;;;;;;;;;;;;;4.18;85.93;97931.28;7402859;19;19918;-80
2023/03/12 09:43:57;;;;;;;;;;;;;;;4.26;85.65;97935.88;7401166;19;19918;-81
2023/03/12 09:46:36;;;;;;;;;;;;;;;4.24;85.61;97935.19;7396735;19;19907;-78
2023/03/12 09:49:04;;;;;;;;;;;;;;;4.23;85.45;97931.72;7410628;19;19967;-79
2023/03/12 09:51:35;;;;;;;;;;;;;;;4.31;85.90;97933.72;7403922;19;19911;-79
2023/03/12 09:54:02;;;;;;;;;;;;;;;4.37;85.92;97931.44;7410273;19;19947;-79
2023/03/12 09:56:29;;;;;;;;;;;;;;;4.57;86.44;97931.56;7405150;19;19918;-78
2023/03/12 09:58:55;;;;;;;;;;;;;;;4.77;86.85;97932.50;7397597;19;19922;-81
2023/03/12 10:01:25;;;;;;;;;;;;;;;4.90;86.50;97927.03;7388237;19;19923;-81
2023/03/12 10:04:10;;;;;;;;;;;;;;;4.95;86.04;97935.31;7388767;19;19915;-82
2023/03/12 10:06:52;;;;;;;;;;;;;;;5.05;85.47;97933.59;7384540;19;19922;-81
2023/03/12 10:09:28;;;;;;;;;;;;;;;5.19;86.35;97940.28;7388181;19;19914;-81
2023/03/12 10:12:18;;;;;;;;;;;;;;;5.49;86.91;97936.78;7390329;19;19918;-79
2023/03/12 10:15:03;;;;;;;;;;;;;;;5.70;86.71;97924.38;7385881;19;19923;-79
2023/03/12 10:17:39;;;;;;;;;;;;;;;5.99;86.61;97934.13;7362640;19;20010;-81
2023/03/12 10:20:21;;;;;;;;;;;;;;;6.13;86.56;97933.72;7363620;19;19954;-82
2023/03/12 10:23:08;;;;;;;;;;;;;;;6.37;86.64;97935.06;7367982;19;19919;-83
2023/03/12 10:25:45;;;;;;;;;;;;;;;6.43;85.84;97944.22;7386311;19;19923;-82
2023/03/12 10:28:19;;;;;;;;;;;;;;;6.47;85.48;97941.13;7385361;19;19915;-82
2023/03/12 10:30:56;;;;;;;;;;;;;;;6.48;85.38;97934.94;7386963;19;20790;-82
2023/03/12 10:33:23;;;;;;;;;;;;;;;6.65;86.06;97933.38;7393588;19;19923;-82
2023/03/12 10:35:50;;;;;;;;;;;;;;;6.74;85.90;97934.31;7386733;19;19923;-82
2023/03/12 10:38:18;;;;;;;;;;;;;;;6.90;85.56;97931.06;7395259;19;19942;-82
2023/03/12 10:40:45;;;;;;;;;;;;;;;7.07;84.90;97942.66;7386151;19;19923;-83
2023/03/12 10:43:11;;;;;;;;;;;;;;;7.13;85.17;97939.44;7392307;19;19946;-82
2023/03/12 10:46:04;;;;;;;;;;;;;;;7.13;84.98;97953.41;7392643;19;19934;-83
2023/03/12 10:48:30;;;;;;;;;;;;;;;7.19;85.56;97957.31;7390493;19;19942;-83
2023/03/12 10:51:03;;;;;;;;;;;;;;;7.12;85.94;97961.47;7388185;19;19924;-82
2023/03/12 10:53:31;;;;;;;;;;;;;;;7.09;86.68;97967.03;7391362;19;19919;-83
2023/03/12 10:55:59;;;;;;;;;;;;;;;7.07;87.40;97966.34;7388437;19;20680;-83
2023/03/12 10:58:29;;;;;;;;;;;;;;;6.94;87.77;97975.34;7380412;19;19930;-82
2023/03/12 11:00:57;;;;;;;;;;;;;;;6.93;87.65;97972.88;7383891;19;19919;-82
2023/03/12 11:03:24;;;;;;;;;;;;;;;6.90;87.67;97975.78;7392803;19;20009;-83
2023/03/12 11:05:52;;;;;;;;;;;;;;;6.90;87.93;97968.75;7390149;19;19919;-83
2023/03/12 11:08:34;;;;;;;;;;;;;;;6.97;88.09;97980.31;7376266;19;20942;-83
2023/03/12 11:11:00;;;;;;;;;;;;;;;6.93;88.16;97976.34;7390345;19;19925;-84
2023/03/12 11:13:37;;;;;;;;;;;;;;;6.86;88.76;97977.88;7392323;19;19930;-83
2023/03/12 11:16:16;;;;;;;;;;;;;;;6.96;89.58;97980.50;7374272;19;19938;-83
2023/03/12 11:19:02;;;;;;;;;;;;;;;7.01;90.16;97980.91;7386695;19;19943;-83
2023/03/12 11:21:30;;;;;;;;;;;;;;;7.13;90.36;97978.91;7386884;19;20597;-83
2023/03/12 11:23:56;;;;;;;;;;;;;;;7.34;90.45;97981.31;7386354;19;19915;-81
2023/03/12 11:26:24;;;;;;;;;;;;;;;7.57;90.22;97982.59;7388864;19;19914;-82
2023/03/12 11:28:51;;;;;;;;;;;;;;;7.88;90.33;97974.41;7385644;19;19935;-83
2023/03/12 11:31:18;;;;;;;;;;;;;;;8.15;89.50;97970.88;7380642;19;19943;-82
2023/03/12 11:33:45;;;;;;;;;;;;;;;8.53;89.30;97963.66;7387801;19;19921;-82
2023/03/12 11:36:27;;;;;;;;;;;;;;;8.81;88.55;97964.34;7394561;19;19911;-83
2023/03/12 11:39:06;;;;;;;;;;;;;;;9.06;88.16;97962.72;7391729;19;20412;-83
2023/03/12 11:41:32;;;;;;;;;;;;;;;9.41;87.41;97958.25;7387799;19;20345;-82
2023/03/12 11:43:59;;;;;;;;;;;;;;;9.55;84.61;97960.28;7376588;19;19925;-85
2023/03/12 11:46:30;;;;;;;;;;;;;;;9.59;85.54;97964.28;7391002;19;20346;-82
2023/03/12 11:49:01;;;;;;;;;;;;;;;9.60;84.19;97963.28;7382193;19;19910;-83
2023/03/12 11:51:36;;;;;;;;;;;;;;;9.72;83.50;97952.44;7378614;19;19927;-85
2023/03/12 11:54:05;;;;;;;;;;;;;;;9.77;83.38;97952.75;7388138;19;19951;-82
2023/03/12 11:56:36;;;;;;;;;;;;;;;9.59;83.36;97955.53;7386233;19;19974;-83
2023/03/12 11:59:03;;;;;;;;;;;;;;;9.53;83.56;97958.78;7384320;19;20398;-79
2023/03/12 12:01:33;;;;;;;;;;;;;;;9.29;83.06;97959.53;7378066;19;19915;-78
2023/03/12 12:04:02;;;;;;;;;;;;;;;9.11;83.92;97960.44;7368520;19;19922;-81
2023/03/12 12:06:38;;;;;;;;;;;;;;;8.83;86.84;97957.13;7377386;19;19940;-80
2023/03/12 12:09:08;;;;;;;;;;;;;;;8.60;87.88;97967.34;7377088;19;19943;-84
2023/03/12 12:11:53;;;;;;;;;;;;;;;8.74;89.82;97964.16;7382473;19;19919;-84
2023/03/12 12:14:24;;;;;;;;;;;;;;;8.92;88.78;97963.28;7385391;19;19911;-86
2023/03/12 12:16:57;;;;;;;;;;;;;;;8.94;87.86;97956.03;7385841;19;19926;-87
2023/03/12 12:19:23;;;;;;;;;;;;;;;8.82;87.03;97957.28;7393512;19;19929;-83
2023/03/12 12:22:02;;;;;;;;;;;;;;;8.88;86.88;97941.66;7381842;19;20273;-86
2023/03/12 12:24:49;;;;;;;;;;;;;;;8.97;86.83;97958.34;7391597;19;19915;-84
2023/03/12 12:27:20;;;;;;;;;;;;;;;9.15;86.86;97951.19;7383742;19;19961;-85
2023/03/12 12:30:05;;;;;;;;;;;;;;;9.40;87.30;97948.66;7379215;19;20679;-86
2023/03/12 12:32:41;;;;;;;;;;;;;;;9.77;87.11;97937.75;7394349;19;19922;-84
2023/03/12 12:35:19;;;;;;;;;;;;;;;10.37;85.60;97934.06;7384953;19;19922;-84
2023/03/12 12:38:08;;;;;;;;;;;;;;;10.53;82.72;97922.66;7385292;19;19942;-83
2023/03/12 12:40:39;;;;;;;;;;;;;;;10.52;81.52;97923.66;7389115;19;19919;-81
2023/03/12 12:43:09;;;;;;;;;;;;;;;10.80;78.92;97910.91;7386904;19;19919;-84
2023/03/12 12:45:36;;;;;;;;;;;;;;;10.65;78.86;97916.03;7383609;19;20256;-86
2023/03/12 12:48:05;;;;;;;;;;;;;;;10.40;78.26;97909.94;7364908;19;19923;-81
2023/03/12 12:50:34;;;;;;;;;;;;;;;10.45;78.26;97917.38;7383558;19;19923;-85
2023/03/12 12:53:20;;;;;;;;;;;;;;;10.38;77.84;97927.78;7375644;19;20355;-83
2023/03/12 12:56:19;;;;;;;;;;;;;;;10.38;77.92;97925.16;7385382;19;19923;-86
2023/03/12 12:58:52;;;;;;;;;;;;;;;10.33;77.50;97919.53;7374249;19;19938;-86
2023/03/12 13:01:18;;;;;;;;;;;;;;;10.13;76.79;97926.09;7392884;19;19918;-84